createdAt,value
2019-04-22T00:01:42.248Z,101083.05
2019-04-22T00:04:22.716Z,101083.64
2019-04-22T00:07:11.697Z,101083.05
2019-04-22T00:09:49.406Z,101080.31
2019-04-22T00:12:22.368Z,101078.38
2019-04-22T00:14:46.569Z,101074.77
2019-04-22T00:17:21.995Z,101078.37
2019-04-22T00:20:00.661Z,101077.79
2019-04-22T00:22:27.775Z,101078.39
2019-04-22T00:25:02.472Z,101066.19
2019-04-22T00:27:37.293Z,101070.89
2019-04-22T00:30:07.340Z,101069.81
2019-04-22T00:32:50.060Z,101068.53
2019-04-22T00:35:19.792Z,101066.36
2019-04-22T00:37:57.020Z,101060.97
2019-04-22T00:42:58.819Z,101069.05
2019-04-22T00:45:33.318Z,101068.39
2019-04-22T00:48:09.264Z,101065.55
2019-04-22T00:50:38.865Z,101064.92
2019-04-22T00:53:11.615Z,101058.32
2019-04-22T00:56:00.676Z,101048.05
2019-04-22T00:58:37.934Z,101048.05
2019-04-22T01:01:12.147Z,101053.13
2019-04-22T01:06:16.020Z,101055.16
2019-04-22T01:11:28.194Z,101051.72
2019-04-22T01:13:53.323Z,101045.58
2019-04-22T01:16:26.234Z,101046.27
2019-04-22T01:18:55.146Z,101039.34
2019-04-22T01:21:38.559Z,101036.72
2019-04-22T01:23:59.701Z,101035.44
2019-04-22T01:26:29.029Z,101030.27
2019-04-22T01:28:59.553Z,101030.17
2019-04-22T01:31:22.001Z,101027.05
2019-04-22T01:34:06.824Z,101030.36
2019-04-22T01:36:43.024Z,101026.34
2019-04-22T01:39:37.554Z,101025.23
2019-04-22T01:41:59.881Z,101020.79
2019-04-22T01:44:29.789Z,101016.84
2019-04-22T01:46:57.031Z,101018.53
2019-04-22T01:49:30.116Z,101013.30
2019-04-22T01:54:46.762Z,101021.13
2019-04-22T01:57:04.489Z,101014.55
2019-04-22T01:59:31.833Z,101011.04
2019-04-22T02:02:10.296Z,101005.48
2019-04-22T02:04:44.476Z,101004.06
2019-04-22T02:07:16.833Z,101004.36
2019-04-22T02:09:51.963Z,100998.63
2019-04-22T02:12:19.586Z,100991.67
2019-04-22T02:14:50.641Z,100991.41
2019-04-22T02:17:31.519Z,100982.73
2019-04-22T02:19:57.848Z,100985.56
2019-04-22T02:22:52.701Z,100980.10
2019-04-22T02:25:08.804Z,100987.47
2019-04-22T02:27:39.055Z,100978.11
2019-04-22T02:30:05.446Z,100975.80
2019-04-22T02:34:12.016Z,100975.08
2019-04-22T02:35:23.408Z,100980.87
2019-04-22T02:37:45.507Z,100979.08
2019-04-22T02:40:37.983Z,100978.97
2019-04-22T02:43:01.466Z,100973.67
2019-04-22T02:45:27.169Z,100977.07
2019-04-22T02:47:59.352Z,100974.73
2019-04-22T02:50:28.589Z,100969.06
2019-04-22T02:53:01.527Z,100973.45
2019-04-22T02:55:43.627Z,100978.05
2019-04-22T02:58:10.022Z,100973.05
2019-04-22T03:00:49.166Z,100970.89
2019-04-22T03:03:20.963Z,100972.53
2019-04-22T03:05:56.280Z,100971.06
2019-04-22T03:08:23.652Z,100966.61
2019-04-22T03:11:13.524Z,100970.30
2019-04-22T03:13:40.674Z,100968.06
2019-04-22T03:16:17.869Z,100961.98
2019-04-22T03:18:42.134Z,100956.69
2019-04-22T03:23:45.552Z,100947.87
2019-04-22T03:28:47.711Z,100943.80
2019-04-22T03:42:07.626Z,100928.47
2019-04-22T03:44:46.698Z,100928.14
2019-04-22T03:49:58.469Z,100923.72
2019-04-22T03:54:53.252Z,100924.29
2019-04-22T03:59:56.829Z,100926.09
2019-04-22T04:02:30.768Z,100927.58
2019-04-22T04:04:50.566Z,100922.34
2019-04-22T04:07:40.523Z,100925.30
2019-04-22T04:10:16.993Z,100921.31
2019-04-22T04:12:44.347Z,100921.63
2019-04-22T04:15:14.201Z,100913.05
2019-04-22T04:17:44.175Z,100917.76
2019-04-22T04:20:24.307Z,100911.30
2019-04-22T04:23:05.498Z,100906.81
2019-04-22T04:28:10.806Z,100906.84
2019-04-22T04:30:29.421Z,100906.52
2019-04-22T04:37:55.176Z,100899.89
2019-04-22T04:48:17.678Z,100899.84
2019-04-22T04:50:49.911Z,100892.31
2019-04-22T04:55:49.057Z,100899.07
2019-04-22T05:00:58.829Z,100890.87
2019-04-22T05:03:30.430Z,100894.20
2019-04-22T05:08:40.614Z,100893.48
2019-04-22T05:11:10.983Z,100888.55
2019-04-22T05:13:39.710Z,100894.92
2019-04-22T05:16:17.327Z,100891.77
2019-04-22T05:18:39.547Z,100885.59
2019-04-22T05:21:12.267Z,100888.44
2019-04-22T05:23:39.438Z,100885.85
2019-04-22T05:26:16.538Z,100884.42
2019-04-22T05:28:35.624Z,100884.28
2019-04-22T05:31:16.099Z,100881.13
2019-04-22T05:33:46.021Z,100882.33
2019-04-22T05:41:22.264Z,100872.02
2019-04-22T05:43:53.284Z,100870.56
2019-04-22T05:46:22.689Z,100880.28
2019-04-22T05:49:03.162Z,100883.08
2019-04-22T05:51:31.434Z,100880.67
2019-04-22T05:54:05.479Z,100873.19
2019-04-22T05:56:39.488Z,100879.91
2019-04-22T05:59:07.331Z,100863.84
2019-04-22T06:01:44.549Z,100860.58
2019-04-22T06:04:09.536Z,100861.22
2019-04-22T06:06:35.337Z,100864.02
2019-04-22T06:09:22.461Z,100858.58
2019-04-22T06:11:36.012Z,100858.58
2019-04-22T06:14:20.333Z,100866.70
2019-04-22T06:16:57.127Z,100863.39
2019-04-22T06:19:24.828Z,100862.12
2019-04-22T06:22:06.348Z,100860.61
2019-04-22T06:24:39.449Z,100851.98
2019-04-22T06:27:19.146Z,100851.98
2019-04-22T06:29:36.546Z,100850.11
2019-04-22T06:32:23.111Z,100847.41
2019-04-22T06:34:45.190Z,100845.80
2019-04-22T06:37:18.716Z,100848.20
2019-04-22T06:39:48.574Z,100848.92
2019-04-22T06:42:21.921Z,100854.00
2019-04-22T06:44:54.320Z,100842.00
2019-04-22T06:47:39.974Z,100843.53
2019-04-22T06:49:57.345Z,100842.44
2019-04-22T06:52:22.394Z,100843.41
2019-04-22T06:55:05.932Z,100832.59
2019-04-22T06:57:30.788Z,100831.47
2019-04-22T07:00:05.278Z,100824.92
2019-04-22T07:02:45.077Z,100820.60
2019-04-22T07:05:07.856Z,100818.50
2019-04-22T07:07:38.367Z,100823.45
2019-04-22T07:10:26.451Z,100823.80
2019-04-22T07:13:00.930Z,100823.80
2019-04-22T07:15:36.995Z,100835.02
2019-04-22T07:17:55.021Z,100820.25
2019-04-22T07:20:28.457Z,100813.52
2019-04-22T07:22:59.929Z,100803.13
2019-04-22T07:25:23.496Z,100809.11
2019-04-22T07:28:02.049Z,100813.37
2019-04-22T07:30:34.998Z,100812.28
2019-04-22T07:33:21.087Z,100808.08
2019-04-22T07:35:51.637Z,100805.25
2019-04-22T07:38:11.232Z,100793.80
2019-04-22T07:40:43.983Z,100773.68
2019-04-22T07:43:26.554Z,100773.68
2019-04-22T07:46:00.580Z,100770.25
2019-04-22T07:51:03.972Z,100749.80
2019-04-22T07:53:23.277Z,100752.34
2019-04-22T07:56:00.154Z,100744.05
2019-04-22T07:58:29.384Z,100750.53
2019-04-22T08:01:08.823Z,100746.52
2019-04-22T08:03:47.395Z,100747.61
2019-04-22T08:06:12.025Z,100741.66
2019-04-22T08:08:38.798Z,100740.86
2019-04-22T08:11:30.192Z,100734.81
2019-04-22T08:13:59.001Z,100731.76
2019-04-22T08:16:16.539Z,100723.63
2019-04-22T08:18:45.860Z,100724.95
2019-04-22T08:21:16.598Z,100733.53
2019-04-22T08:23:57.568Z,100727.74
2019-04-22T08:26:27.614Z,100719.14
2019-04-22T08:29:17.843Z,100720.08
2019-04-22T08:31:38.465Z,100716.70
2019-04-22T08:34:12.180Z,100707.07
2019-04-22T08:36:40.848Z,100697.67
2019-04-22T08:44:07.938Z,100684.03
2019-04-22T08:49:10.183Z,100681.89
2019-04-22T08:51:49.491Z,100682.69
2019-04-22T08:54:21.960Z,100678.69
2019-04-22T08:56:50.727Z,100678.67
2019-04-22T08:59:22.100Z,100669.44
2019-04-22T09:01:57.458Z,100666.12
2019-04-22T09:04:31.279Z,100658.95
2019-04-22T09:07:12.455Z,100654.30
2019-04-22T09:09:39.376Z,100650.55
2019-04-22T09:12:07.642Z,100647.52
2019-04-22T09:14:43.479Z,100636.48
2019-04-22T09:17:16.839Z,100637.63
2019-04-22T09:19:47.828Z,100634.41
2019-04-22T09:22:16.830Z,100627.70
2019-04-22T09:25:00.424Z,100638.06
2019-04-22T09:30:15.094Z,100629.68
2019-04-22T09:32:31.744Z,100627.72
2019-04-22T09:35:16.044Z,100614.55
2019-04-22T09:40:10.647Z,100617.14
2019-04-22T09:42:41.008Z,100607.13
2019-04-22T09:45:10.178Z,100601.06
2019-04-22T09:47:49.226Z,100599.46
2019-04-22T09:50:17.861Z,100590.94
2019-04-22T09:52:48.933Z,100596.36
2019-04-22T09:55:18.309Z,100590.77
2019-04-22T09:57:51.050Z,100583.33
2019-04-22T10:00:36.497Z,100584.59
2019-04-22T10:03:00.910Z,100583.62
2019-04-22T10:05:32.590Z,100579.41
2019-04-22T10:08:13.360Z,100577.89
2019-04-22T10:10:41.767Z,100567.05
2019-04-22T10:13:12.273Z,100561.14
2019-04-22T10:15:49.176Z,100561.14
2019-04-22T10:18:19.337Z,100559.48
2019-04-22T10:21:10.131Z,100554.75
2019-04-22T10:23:25.328Z,100550.27
2019-04-22T10:25:59.081Z,100549.83
2019-04-22T10:28:32.793Z,100548.11
2019-04-22T10:31:21.909Z,100536.59
2019-04-22T10:33:26.897Z,100530.59
2019-04-22T10:35:41.719Z,100520.38
2019-04-22T10:38:12.646Z,100529.45
2019-04-22T10:40:44.844Z,100536.08
2019-04-22T10:43:16.946Z,100523.58
2019-04-22T10:45:48.091Z,100513.34
2019-04-22T10:48:18.752Z,100506.23
2019-04-22T10:50:50.706Z,100503.44
2019-04-22T10:53:21.730Z,100495.73
2019-04-22T10:55:54.366Z,100491.23
2019-04-22T10:58:26.560Z,100494.34
2019-04-22T11:00:58.188Z,100502.11
2019-04-22T11:03:31.103Z,100504.52
2019-04-22T11:06:03.186Z,100477.92
2019-04-22T11:08:44.471Z,100477.92
2019-04-22T11:11:21.414Z,100467.20
2019-04-22T11:13:40.162Z,100462.48
2019-04-22T11:16:11.652Z,100474.70
2019-04-22T11:18:43.533Z,100477.73
2019-04-22T11:21:17.891Z,100469.59
2019-04-22T11:23:47.057Z,100475.13
2019-04-22T11:26:17.927Z,100461.21
2019-04-22T11:28:49.615Z,100452.29
2019-04-22T11:31:20.737Z,100453.59
2019-04-22T11:33:52.465Z,100455.51
2019-04-22T11:36:24.733Z,100455.51
2019-04-22T11:39:01.454Z,100450.37
2019-04-22T11:41:28.644Z,100465.23
2019-04-22T11:43:59.217Z,100459.50
2019-04-22T11:46:29.800Z,100460.46
2019-04-22T11:49:00.407Z,100453.20
2019-04-22T11:51:31.961Z,100448.14
2019-04-22T11:54:05.026Z,100446.34
2019-04-22T11:56:36.933Z,100447.90
2019-04-22T11:59:08.894Z,100442.48
2019-04-22T12:01:40.302Z,100443.28
2019-04-22T12:04:11.760Z,100441.58
2019-04-22T12:06:42.315Z,100440.16
2019-04-22T12:09:17.140Z,100434.52
2019-04-22T12:11:49.486Z,100432.56
2019-04-22T12:14:20.117Z,100427.11
2019-04-22T12:16:53.095Z,100419.87
2019-04-22T12:19:25.053Z,100414.62
2019-04-22T12:21:57.147Z,100412.80
2019-04-22T12:24:28.182Z,100412.80
2019-04-22T12:27:00.311Z,100401.98
2019-04-22T12:29:31.068Z,100391.33
2019-04-22T12:32:03.197Z,100401.20
2019-04-22T12:34:35.477Z,100383.52
2019-04-22T12:37:06.770Z,100387.95
2019-04-22T12:39:37.507Z,100376.13
2019-04-22T12:42:09.004Z,100382.16
2019-04-22T12:44:42.044Z,100376.75
2019-04-22T12:47:13.075Z,100368.73
2019-04-22T12:49:54.356Z,100362.27
2019-04-22T12:52:26.665Z,100349.93
2019-04-22T12:54:52.986Z,100350.98
2019-04-22T12:57:24.940Z,100358.59
2019-04-22T12:59:55.803Z,100351.98
2019-04-22T13:02:27.040Z,100348.33
2019-04-22T13:04:58.552Z,100352.76
2019-04-22T13:07:29.533Z,100330.72
2019-04-22T13:10:01.440Z,100334.12
2019-04-22T13:12:33.036Z,100327.17
2019-04-22T13:15:09.882Z,100326.72
2019-04-22T13:17:42.076Z,100329.56
2019-04-22T13:20:16.127Z,100330.77
2019-04-22T13:22:45.842Z,100328.95
2019-04-22T13:25:17.625Z,100323.90
2019-04-22T13:27:49.117Z,100313.92
2019-04-22T13:30:22.875Z,100310.88
2019-04-22T13:32:54.581Z,100301.70
2019-04-22T13:35:28.038Z,100308.67
2019-04-22T13:37:59.324Z,100299.47
2019-04-22T13:40:31.053Z,100290.66
2019-04-22T13:43:02.764Z,100292.91
2019-04-22T13:45:33.950Z,100294.19
2019-04-22T13:48:23.980Z,100284.95
2019-04-22T13:53:47.963Z,100284.92
2019-04-22T13:56:07.229Z,100280.48
2019-04-22T13:58:31.430Z,100284.05
2019-04-22T14:00:52.578Z,100275.48
2019-04-22T14:03:44.697Z,100281.34
2019-04-22T14:06:16.439Z,100281.02
2019-04-22T14:08:47.280Z,100274.45
2019-04-22T14:11:27.740Z,100269.98
2019-04-22T14:13:52.154Z,100274.91
2019-04-22T14:16:22.933Z,100258.14
2019-04-22T14:18:53.867Z,100262.47
2019-04-22T14:21:24.948Z,100253.03
2019-04-22T14:23:56.384Z,100249.84
2019-04-22T14:26:27.300Z,100249.84
2019-04-22T14:28:59.966Z,100249.18
2019-04-22T14:31:30.838Z,100238.05
2019-04-22T14:34:05.270Z,100235.56
2019-04-22T14:36:35.244Z,100221.74
2019-04-22T14:39:08.457Z,100226.79
2019-04-22T14:41:55.062Z,100216.05
2019-04-22T14:47:15.728Z,100207.95
2019-04-22T14:49:42.122Z,100211.13
2019-04-22T14:52:12.937Z,100208.95
2019-04-22T14:54:34.871Z,100193.11
2019-04-22T14:56:54.240Z,100192.45
2019-04-22T14:59:25.049Z,100187.65
2019-04-22T15:01:55.918Z,100184.91
2019-04-22T15:04:27.014Z,100178.59
2019-04-22T15:07:01.064Z,100178.59
2019-04-22T15:09:32.272Z,100172.61
2019-04-22T15:12:10.955Z,100187.77
2019-04-22T15:14:35.512Z,100176.61
2019-04-22T15:17:29.193Z,100171.77
2019-04-22T15:20:19.663Z,100176.86
2019-04-22T15:22:50.717Z,100168.47
2019-04-22T15:25:21.123Z,100158.05
2019-04-22T15:27:53.299Z,100159.08
2019-04-22T15:30:23.830Z,100153.95
2019-04-22T15:32:54.389Z,100161.58
2019-04-22T15:35:25.328Z,100163.00
2019-04-22T15:37:57.284Z,100156.77
2019-04-22T15:40:29.058Z,100149.56
2019-04-22T15:42:59.834Z,100137.27
2019-04-22T15:45:32.567Z,100137.27
2019-04-22T15:48:11.947Z,100146.08
2019-04-22T15:50:42.510Z,100144.44
2019-04-22T15:53:13.797Z,100148.14
2019-04-22T15:55:44.932Z,100137.57
2019-04-22T15:58:15.642Z,100141.17
2019-04-22T16:00:56.424Z,100131.99
2019-04-22T16:03:20.410Z,100138.02
2019-04-22T16:05:52.285Z,100126.42
2019-04-22T16:08:23.015Z,100132.00
2019-04-22T16:10:53.803Z,100133.16
2019-04-22T16:13:28.354Z,100138.33
2019-04-22T16:15:58.422Z,100131.10
2019-04-22T16:18:30.684Z,100140.88
2019-04-22T16:21:02.739Z,100136.23
2019-04-22T16:23:46.617Z,100136.61
2019-04-22T16:26:20.405Z,100123.66
2019-04-22T16:28:54.516Z,100134.70
2019-04-22T16:31:23.452Z,100135.64
2019-04-22T16:33:54.499Z,100135.97
2019-04-22T16:36:25.129Z,100133.57
2019-04-22T16:38:57.045Z,100136.52
2019-04-22T16:41:28.702Z,100133.62
2019-04-22T16:44:00.764Z,100127.84
2019-04-22T16:46:31.867Z,100128.50
2019-04-22T16:49:03.434Z,100126.06
2019-04-22T16:51:34.038Z,100124.41
2019-04-22T16:54:08.549Z,100117.52
2019-04-22T16:56:39.721Z,100116.42
2019-04-22T16:59:10.797Z,100116.42
2019-04-22T17:02:01.145Z,100118.80
2019-04-22T17:05:01.983Z,100122.83
2019-04-22T17:07:36.060Z,100117.19
2019-04-22T17:10:08.215Z,100116.56
2019-04-22T17:12:50.807Z,100107.71
2019-04-22T17:15:16.234Z,100112.34
2019-04-22T17:17:47.403Z,100119.59
2019-04-22T17:20:18.074Z,100119.80
2019-04-22T17:22:49.493Z,100122.25
2019-04-22T17:25:20.509Z,100119.03
2019-04-22T17:27:51.949Z,100123.59
2019-04-22T17:30:24.276Z,100113.42
2019-04-22T17:32:56.625Z,100116.22
2019-04-22T17:35:28.543Z,100105.53
2019-04-22T17:38:10.001Z,100107.95
2019-04-22T17:40:51.273Z,100105.70
2019-04-22T17:43:36.137Z,100113.81
2019-04-22T17:46:09.079Z,100110.24
2019-04-22T17:49:12.147Z,100111.42
2019-04-22T17:51:49.621Z,100120.91
2019-04-22T17:54:20.120Z,100115.02
2019-04-22T17:56:48.630Z,100116.34
2019-04-22T17:59:23.065Z,100107.45
2019-04-22T18:01:49.201Z,100113.64
2019-04-22T18:04:06.616Z,100116.95
2019-04-22T18:07:03.803Z,100121.05
2019-04-22T18:10:06.658Z,100125.88
2019-04-22T18:12:11.839Z,100126.13
2019-04-22T18:14:52.841Z,100136.02
2019-04-22T18:17:11.531Z,100136.02
2019-04-22T18:19:44.875Z,100134.86
2019-04-22T18:22:07.576Z,100140.27
2019-04-22T18:24:43.677Z,100138.43
2019-04-22T18:27:37.562Z,100136.17
2019-04-22T18:29:48.569Z,100142.44
2019-04-22T18:32:16.928Z,100140.08
2019-04-22T18:34:49.516Z,100132.95
2019-04-22T18:37:20.972Z,100144.00
2019-04-22T18:40:01.998Z,100143.21
2019-04-22T18:42:25.674Z,100142.83
2019-04-22T18:45:28.136Z,100144.20
2019-04-22T18:47:33.819Z,100150.88
2019-04-22T18:50:08.505Z,100146.83
2019-04-22T18:53:04.921Z,100152.31
2019-04-22T18:55:34.204Z,100155.11
2019-04-22T18:58:11.653Z,100154.70
2019-04-22T19:00:31.710Z,100160.22
2019-04-22T19:03:09.875Z,100150.08
2019-04-22T19:05:51.707Z,100157.60
2019-04-22T19:08:36.372Z,100152.66
2019-04-22T19:11:13.996Z,100162.44
2019-04-22T19:16:30.866Z,100159.70
2019-04-22T19:19:07.704Z,100160.19
2019-04-22T19:21:38.034Z,100160.66
2019-04-22T19:23:53.955Z,100161.19
2019-04-22T19:26:40.966Z,100166.14
2019-04-22T19:31:43.817Z,100164.33
2019-04-22T19:34:16.508Z,100164.80
2019-04-22T19:36:51.268Z,100167.56
2019-04-22T19:39:12.071Z,100161.08
2019-04-22T19:41:56.513Z,100168.04
2019-04-22T19:44:26.009Z,100174.33
2019-04-22T19:47:15.396Z,100170.05
2019-04-22T19:49:36.442Z,100166.98
2019-04-22T19:54:29.064Z,100175.75
2019-04-22T19:56:57.448Z,100171.39
2019-04-22T19:59:42.743Z,100174.45
2019-04-22T20:02:28.908Z,100169.01
2019-04-22T20:05:24.614Z,100168.69
2019-04-22T20:07:52.409Z,100168.69
2019-04-22T20:10:22.431Z,100168.35
2019-04-22T20:12:50.188Z,100177.09
2019-04-22T20:15:22.776Z,100171.60
2019-04-22T20:18:14.586Z,100165.95
2019-04-22T20:20:31.475Z,100166.84
2019-04-22T20:22:59.826Z,100167.34
2019-04-22T20:25:31.377Z,100167.80
2019-04-22T20:28:17.806Z,100172.53
2019-04-22T20:30:39.941Z,100172.53
2019-04-22T20:33:08.390Z,100169.56
2019-04-22T20:35:53.104Z,100165.87
2019-04-22T20:38:19.993Z,100163.63
2019-04-22T20:40:49.440Z,100154.95
2019-04-22T20:43:33.259Z,100159.31
2019-04-22T20:46:00.591Z,100158.07
2019-04-22T20:48:28.582Z,100153.34
2019-04-22T20:50:58.139Z,100148.23
2019-04-22T20:53:38.064Z,100146.48
2019-04-22T20:56:05.613Z,100145.30
2019-04-22T20:58:40.673Z,100141.08
2019-04-22T21:01:01.284Z,100144.97
2019-04-22T21:03:33.015Z,100141.20
2019-04-22T21:06:16.432Z,100143.47
2019-04-22T21:08:48.704Z,100141.70
2019-04-22T21:11:19.411Z,100144.17
2019-04-22T21:13:54.258Z,100145.56
2019-04-22T21:16:26.950Z,100142.67
2019-04-22T21:18:58.174Z,100137.66
2019-04-22T21:21:33.263Z,100147.98
2019-04-22T21:23:54.215Z,100149.80
2019-04-22T21:32:10.485Z,100143.84
2019-04-22T21:34:46.211Z,100150.73
2019-04-22T21:37:14.144Z,100149.07
2019-04-22T21:39:36.371Z,100148.31
2019-04-22T21:42:14.323Z,100148.34
2019-04-22T21:44:45.558Z,100152.27
2019-04-22T21:47:26.952Z,100139.81
2019-04-22T21:50:09.838Z,100139.81
2019-04-22T21:52:22.897Z,100134.22
2019-04-22T21:55:02.586Z,100138.11
2019-04-22T21:57:35.714Z,100136.39
2019-04-22T22:00:17.602Z,100135.92
2019-04-22T22:02:45.566Z,100135.51
2019-04-22T22:05:08.111Z,100130.31
2019-04-22T22:07:29.058Z,100134.19
2019-04-22T22:10:16.939Z,100127.73
2019-04-22T22:12:54.976Z,100130.31
2019-04-22T22:17:55.754Z,100135.05
2019-04-22T22:20:31.018Z,100139.80
2019-04-22T22:23:09.109Z,100140.68
2019-04-22T22:25:34.878Z,100142.41
2019-04-22T22:28:21.929Z,100141.55
2019-04-22T22:33:10.457Z,100134.66
2019-04-22T22:35:47.972Z,100135.52
2019-04-22T22:38:19.737Z,100141.53
2019-04-22T22:40:34.140Z,100134.20
2019-04-22T22:43:11.781Z,100138.51
2019-04-22T22:45:43.781Z,100132.04
2019-04-22T22:48:36.475Z,100132.04
2019-04-22T22:51:02.088Z,100132.02
2019-04-22T22:56:02.210Z,100131.15
2019-04-22T22:58:42.567Z,100118.66
2019-04-22T23:01:04.186Z,100117.80
2019-04-22T23:03:50.957Z,100124.67
2019-04-22T23:06:29.023Z,100126.72
2019-04-22T23:08:52.672Z,100124.09
2019-04-22T23:11:40.337Z,100121.06
2019-04-22T23:13:56.939Z,100111.18
2019-04-22T23:16:17.544Z,100110.28
2019-04-22T23:19:17.749Z,100108.57
2019-04-22T23:21:52.611Z,100107.73
2019-04-22T23:24:55.593Z,100106.84
2019-04-22T23:27:38.970Z,100105.08
2019-04-22T23:30:14.517Z,100097.80
2019-04-22T23:32:43.630Z,100097.31
2019-04-22T23:35:45.462Z,100093.05
2019-04-22T23:38:16.466Z,100101.97
2019-04-22T23:40:47.645Z,100095.50
2019-04-22T23:43:27.529Z,100104.09
2019-04-22T23:45:57.925Z,100097.18
2019-04-22T23:48:27.232Z,100083.92
2019-04-22T23:51:03.138Z,100080.05
2019-04-22T23:53:57.930Z,100079.58
2019-04-22T23:56:09.165Z,100075.20
2019-04-22T23:59:04.794Z,100071.64
